sensor_id;sensor_type;location;lat;lon;timestamp;pressure;altitude;pressure_sealevel;temperature;humidity
21817;BME280;13247;47.504;7.382;2023-09-12T00:00:06;96953.88;;;19.62;100.00
21817;BME280;13247;47.504;7.382;2023-09-12T00:02:51;96947.91;;;19.58;100.00
21817;BME280;13247;47.504;7.382;2023-09-12T00:05:35;96940.78;;;19.58;100.00
21817;BME280;13247;47.504;7.382;2023-09-12T00:08:20;96944.47;;;19.20;100.00
21817;BME280;13247;47.504;7.382;2023-09-12T00:11:08;96939.69;;;19.37;100.00
21817;BME280;13247;47.504;7.382;2023-09-12T00:13:55;96931.16;;;19.69;100.00
21817;BME280;13247;47.504;7.382;2023-09-12T00:16:40;96927.25;;;19.62;100.00
21817;BME280;13247;47.504;7.382;2023-09-12T00:19:24;96933.72;;;19.70;100.00
21817;BME280;13247;47.504;7.382;2023-09-12T00:22:09;96935.63;;;19.44;100.00
21817;BME280;13247;47.504;7.382;2023-09-12T00:24:54;96943.41;;;19.35;100.00
21817;BME280;13247;47.504;7.382;2023-09-12T00:27:38;96950.56;;;19.09;100.00
21817;BME280;13247;47.504;7.382;2023-09-12T00:30:23;96950.69;;;18.95;100.00
21817;BME280;13247;47.504;7.382;2023-09-12T00:33:07;96948.63;;;19.24;100.00
21817;BME280;13247;47.504;7.382;2023-09-12T00:35:52;96941.81;;;19.45;100.00
21817;BME280;13247;47.504;7.382;2023-09-12T00:38:36;96949.09;;;19.54;100.00
21817;BME280;13247;47.504;7.382;2023-09-12T00:41:21;96945.47;;;19.06;100.00
21817;BME280;13247;47.504;7.382;2023-09-12T00:44:05;96942.00;;;18.80;100.00
21817;BME280;13247;47.504;7.382;2023-09-12T00:46:51;96940.50;;;18.76;100.00
21817;BME280;13247;47.504;7.382;2023-09-12T00:49:39;96939.56;;;18.90;100.00
21817;BME280;13247;47.504;7.382;2023-09-12T00:52:28;96940.91;;;19.08;100.00
21817;BME280;13247;47.504;7.382;2023-09-12T00:55:14;96945.28;;;19.33;100.00
21817;BME280;13247;47.504;7.382;2023-09-12T00:57:59;96939.31;;;19.54;100.00
21817;BME280;13247;47.504;7.382;2023-09-12T01:00:44;96936.53;;;19.56;100.00
21817;BME280;13247;47.504;7.382;2023-09-12T01:03:30;96929.66;;;19.28;100.00
21817;BME280;13247;47.504;7.382;2023-09-12T01:06:16;96921.19;;;19.36;100.00
21817;BME280;13247;47.504;7.382;2023-09-12T01:09:04;96923.78;;;19.48;100.00
21817;BME280;13247;47.504;7.382;2023-09-12T01:11:49;96925.94;;;19.43;100.00
21817;BME280;13247;47.504;7.382;2023-09-12T01:14:33;96922.03;;;19.36;100.00
21817;BME280;13247;47.504;7.382;2023-09-12T01:17:18;96922.66;;;19.27;100.00
21817;BME280;13247;47.504;7.382;2023-09-12T01:20:05;96930.19;;;19.33;100.00
21817;BME280;13247;47.504;7.382;2023-09-12T01:23:05;96917.66;;;19.35;100.00
21817;BME280;13247;47.504;7.382;2023-09-12T01:28:58;96925.47;;;19.13;100.00
21817;BME280;13247;47.504;7.382;2023-09-12T01:31:45;96936.69;;;19.29;100.00
21817;BME280;13247;47.504;7.382;2023-09-12T01:34:30;96931.81;;;19.36;100.00
21817;BME280;13247;47.504;7.382;2023-09-12T01:37:15;96931.16;;;19.45;100.00
21817;BME280;13247;47.504;7.382;2023-09-12T01:40:00;96934.03;;;19.29;100.00
21817;BME280;13247;47.504;7.382;2023-09-12T01:42:46;96938.59;;;18.78;100.00
21817;BME280;13247;47.504;7.382;2023-09-12T01:45:31;96938.38;;;18.94;100.00
21817;BME280;13247;47.504;7.382;2023-09-12T01:48:22;96933.94;;;19.18;100.00
21817;BME280;13247;47.504;7.382;2023-09-12T01:51:08;96940.09;;;19.31;100.00
21817;BME280;13247;47.504;7.382;2023-09-12T01:53:54;96938.00;;;19.36;100.00
21817;BME280;13247;47.504;7.382;2023-09-12T01:56:42;96937.09;;;19.48;100.00
21817;BME280;13247;47.504;7.382;2023-09-12T01:59:31;96932.38;;;19.52;100.00
21817;BME280;13247;47.504;7.382;2023-09-12T02:02:17;96944.38;;;19.34;100.00
21817;BME280;13247;47.504;7.382;2023-09-12T02:05:18;96938.31;;;19.19;100.00
21817;BME280;13247;47.504;7.382;2023-09-12T02:08:04;96937.13;;;19.36;100.00
21817;BME280;13247;47.504;7.382;2023-09-12T02:10:49;96937.13;;;19.36;100.00
21817;BME280;13247;47.504;7.382;2023-09-12T02:13:34;96935.16;;;19.50;100.00
21817;BME280;13247;47.504;7.382;2023-09-12T02:16:18;96932.50;;;19.50;100.00
21817;BME280;13247;47.504;7.382;2023-09-12T02:19:04;96937.25;;;19.34;100.00
21817;BME280;13247;47.504;7.382;2023-09-12T02:21:49;96934.59;;;19.34;100.00
21817;BME280;13247;47.504;7.382;2023-09-12T02:24:35;96941.44;;;19.49;100.00
21817;BME280;13247;47.504;7.382;2023-09-12T02:27:19;96950.16;;;19.51;100.00
21817;BME280;13247;47.504;7.382;2023-09-12T02:30:04;96946.34;;;19.43;100.00
21817;BME280;13247;47.504;7.382;2023-09-12T02:32:49;96951.22;;;19.13;100.00
21817;BME280;13247;47.504;7.382;2023-09-12T02:35:34;96941.50;;;19.12;100.00
21817;BME280;13247;47.504;7.382;2023-09-12T02:38:19;96946.94;;;19.10;100.00
21817;BME280;13247;47.504;7.382;2023-09-12T02:41:04;96944.38;;;19.34;100.00
21817;BME280;13247;47.504;7.382;2023-09-12T02:43:49;96942.34;;;19.37;100.00
21817;BME280;13247;47.504;7.382;2023-09-12T02:46:34;96938.34;;;19.55;100.00
21817;BME280;13247;47.504;7.382;2023-09-12T02:49:18;96922.94;;;19.72;100.00
21817;BME280;13247;47.504;7.382;2023-09-12T02:52:03;96931.00;;;19.94;100.00
21817;BME280;13247;47.504;7.382;2023-09-12T02:54:48;96935.00;;;19.65;100.00
21817;BME280;13247;47.504;7.382;2023-09-12T02:57:33;96933.91;;;19.43;100.00
21817;BME280;13247;47.504;7.382;2023-09-12T03:00:17;96934.19;;;19.51;100.00
21817;BME280;13247;47.504;7.382;2023-09-12T03:03:05;96931.84;;;19.60;100.00
21817;BME280;13247;47.504;7.382;2023-09-12T03:05:58;96931.66;;;19.50;100.00
21817;BME280;13247;47.504;7.382;2023-09-12T03:08:43;96936.69;;;19.42;100.00
21817;BME280;13247;47.504;7.382;2023-09-12T03:11:28;96936.19;;;19.61;100.00
21817;BME280;13247;47.504;7.382;2023-09-12T03:14:14;96926.06;;;19.66;100.00
21817;BME280;13247;47.504;7.382;2023-09-12T03:16:58;96926.53;;;19.60;100.00
21817;BME280;13247;47.504;7.382;2023-09-12T03:19:43;96924.88;;;19.70;100.00
21817;BME280;13247;47.504;7.382;2023-09-12T03:22:28;96929.22;;;19.71;100.00
21817;BME280;13247;47.504;7.382;2023-09-12T03:25:12;96924.75;;;19.47;100.00
21817;BME280;13247;47.504;7.382;2023-09-12T03:27:57;96928.25;;;19.48;100.00
21817;BME280;13247;47.504;7.382;2023-09-12T03:30:41;96919.72;;;19.55;100.00
21817;BME280;13247;47.504;7.382;2023-09-12T03:33:26;96919.75;;;19.43;100.00
21817;BME280;13247;47.504;7.382;2023-09-12T03:36:10;96916.34;;;19.41;100.00
21817;BME280;13247;47.504;7.382;2023-09-12T03:38:55;96913.44;;;19.56;100.00
21817;BME280;13247;47.504;7.382;2023-09-12T03:41:40;96910.59;;;19.71;100.00
21817;BME280;13247;47.504;7.382;2023-09-12T03:44:25;96905.50;;;19.68;100.00
21817;BME280;13247;47.504;7.382;2023-09-12T03:47:09;96909.97;;;19.67;100.00
21817;BME280;13247;47.504;7.382;2023-09-12T03:49:54;96910.50;;;19.48;100.00
21817;BME280;13247;47.504;7.382;2023-09-12T03:52:38;96923.28;;;19.43;100.00
21817;BME280;13247;47.504;7.382;2023-09-12T03:55:23;96921.94;;;19.25;100.00
21817;BME280;13247;47.504;7.382;2023-09-12T03:58:07;96929.88;;;18.89;100.00
21817;BME280;13247;47.504;7.382;2023-09-12T04:00:52;96916.78;;;18.86;100.00
21817;BME280;13247;47.504;7.382;2023-09-12T04:03:36;96914.81;;;18.77;100.00
21817;BME280;13247;47.504;7.382;2023-09-12T04:06:21;96921.75;;;19.03;100.00
21817;BME280;13247;47.504;7.382;2023-09-12T04:09:06;96924.19;;;19.19;100.00
21817;BME280;13247;47.504;7.382;2023-09-12T04:11:51;96922.03;;;19.36;100.00
21817;BME280;13247;47.504;7.382;2023-09-12T04:14:36;96927.59;;;19.08;100.00
21817;BME280;13247;47.504;7.382;2023-09-12T04:17:20;96921.00;;;19.14;100.00
21817;BME280;13247;47.504;7.382;2023-09-12T04:20:05;96926.63;;;19.22;100.00
21817;BME280;13247;47.504;7.382;2023-09-12T04:22:50;96919.72;;;19.19;100.00
21817;BME280;13247;47.504;7.382;2023-09-12T04:25:35;96927.81;;;19.05;100.00
21817;BME280;13247;47.504;7.382;2023-09-12T04:28:20;96927.06;;;19.03;100.00
21817;BME280;13247;47.504;7.382;2023-09-12T04:31:04;96926.16;;;18.92;100.00
21817;BME280;13247;47.504;7.382;2023-09-12T04:33:51;96927.09;;;18.91;100.00
21817;BME280;13247;47.504;7.382;2023-09-12T04:36:36;96928.72;;;18.68;100.00
21817;BME280;13247;47.504;7.382;2023-09-12T04:39:21;96930.22;;;18.47;100.00
21817;BME280;13247;47.504;7.382;2023-09-12T04:42:05;96935.81;;;18.42;100.00
21817;BME280;13247;47.504;7.382;2023-09-12T04:44:50;96928.41;;;18.47;100.00
21817;BME280;13247;47.504;7.382;2023-09-12T04:47:34;96924.03;;;18.59;100.00
21817;BME280;13247;47.504;7.382;2023-09-12T04:50:19;96928.28;;;18.74;100.00
21817;BME280;13247;47.504;7.382;2023-09-12T04:53:06;96932.44;;;18.78;100.00
21817;BME280;13247;47.504;7.382;2023-09-12T04:55:54;96943.06;;;18.78;100.00
21817;BME280;13247;47.504;7.382;2023-09-12T04:58:38;96943.78;;;18.93;100.00
21817;BME280;13247;47.504;7.382;2023-09-12T05:01:23;96958.00;;;18.16;100.00
21817;BME280;13247;47.504;7.382;2023-09-12T05:04:09;96962.44;;;18.16;100.00
21817;BME280;13247;47.504;7.382;2023-09-12T05:06:54;96960.94;;;18.12;100.00
21817;BME280;13247;47.504;7.382;2023-09-12T05:09:39;96962.97;;;17.81;100.00
21817;BME280;13247;47.504;7.382;2023-09-12T05:12:23;96959.50;;;17.93;100.00
21817;BME280;13247;47.504;7.382;2023-09-12T05:15:08;96964.00;;;18.06;100.00
21817;BME280;13247;47.504;7.382;2023-09-12T05:17:53;96963.94;;;18.20;100.00
21817;BME280;13247;47.504;7.382;2023-09-12T05:20:37;96955.75;;;18.35;100.00
21817;BME280;13247;47.504;7.382;2023-09-12T05:23:22;96958.91;;;18.79;100.00
21817;BME280;13247;47.504;7.382;2023-09-12T05:26:06;96960.03;;;18.88;100.00
21817;BME280;13247;47.504;7.382;2023-09-12T05:28:52;96954.84;;;18.87;100.00
21817;BME280;13247;47.504;7.382;2023-09-12T05:31:37;96966.75;;;18.81;100.00
21817;BME280;13247;47.504;7.382;2023-09-12T05:34:21;96960.81;;;18.90;100.00
21817;BME280;13247;47.504;7.382;2023-09-12T05:37:06;96966.41;;;19.11;100.00
21817;BME280;13247;47.504;7.382;2023-09-12T05:39:51;96972.50;;;19.00;100.00
21817;BME280;13247;47.504;7.382;2023-09-12T05:42:36;96967.81;;;18.78;100.00
21817;BME280;13247;47.504;7.382;2023-09-12T05:45:20;96963.63;;;18.37;100.00
21817;BME280;13247;47.504;7.382;2023-09-12T05:48:05;96966.19;;;18.38;100.00
21817;BME280;13247;47.504;7.382;2023-09-12T05:50:50;96968.44;;;18.57;100.00
21817;BME280;13247;47.504;7.382;2023-09-12T05:53:34;96966.13;;;18.65;100.00
21817;BME280;13247;47.504;7.382;2023-09-12T05:56:19;96969.50;;;19.05;100.00
21817;BME280;13247;47.504;7.382;2023-09-12T05:59:05;96965.63;;;19.46;100.00
21817;BME280;13247;47.504;7.382;2023-09-12T06:01:51;96968.31;;;19.70;100.00
21817;BME280;13247;47.504;7.382;2023-09-12T06:04:37;96968.91;;;19.74;100.00
21817;BME280;13247;47.504;7.382;2023-09-12T06:07:22;96965.34;;;19.86;100.00
21817;BME280;13247;47.504;7.382;2023-09-12T06:10:07;96974.34;;;19.48;100.00
21817;BME280;13247;47.504;7.382;2023-09-12T06:12:52;96981.59;;;19.21;100.00
21817;BME280;13247;47.504;7.382;2023-09-12T06:15:36;96976.53;;;18.93;100.00
21817;BME280;13247;47.504;7.382;2023-09-12T06:18:21;96983.31;;;18.97;100.00
21817;BME280;13247;47.504;7.382;2023-09-12T06:21:05;96986.72;;;19.12;100.00
21817;BME280;13247;47.504;7.382;2023-09-12T06:26:54;96995.22;;;19.04;100.00
21817;BME280;13247;47.504;7.382;2023-09-12T06:29:38;96979.44;;;19.26;100.00
21817;BME280;13247;47.504;7.382;2023-09-12T06:32:23;96975.97;;;19.38;100.00
21817;BME280;13247;47.504;7.382;2023-09-12T06:35:07;96977.59;;;19.52;100.00
21817;BME280;13247;47.504;7.382;2023-09-12T06:37:55;96982.00;;;19.77;100.00
21817;BME280;13247;47.504;7.382;2023-09-12T06:40:42;96975.03;;;20.10;100.00
21817;BME280;13247;47.504;7.382;2023-09-12T06:43:27;96976.06;;;20.20;100.00
21817;BME280;13247;47.504;7.382;2023-09-12T06:46:12;96974.25;;;20.21;100.00
21817;BME280;13247;47.504;7.382;2023-09-12T06:48:57;96974.06;;;20.35;100.00
21817;BME280;13247;47.504;7.382;2023-09-12T06:51:41;96972.72;;;20.41;100.00
21817;BME280;13247;47.504;7.382;2023-09-12T06:54:26;96973.59;;;20.41;100.00
21817;BME280;13247;47.504;7.382;2023-09-12T06:57:10;96972.44;;;20.67;100.00
21817;BME280;13247;47.504;7.382;2023-09-12T06:59:55;96975.59;;;20.72;100.00
21817;BME280;13247;47.504;7.382;2023-09-12T07:02:39;96971.72;;;20.76;100.00
21817;BME280;13247;47.504;7.382;2023-09-12T07:05:24;96982.41;;;20.98;100.00
21817;BME280;13247;47.504;7.382;2023-09-12T07:08:09;96985.09;;;21.21;100.00
21817;BME280;13247;47.504;7.382;2023-09-12T07:10:54;96985.81;;;21.34;100.00
21817;BME280;13247;47.504;7.382;2023-09-12T07:13:39;96989.47;;;21.33;100.00
21817;BME280;13247;47.504;7.382;2023-09-12T07:16:24;96988.00;;;21.40;100.00
21817;BME280;13247;47.504;7.382;2023-09-12T07:19:08;96998.31;;;21.33;100.00
21817;BME280;13247;47.504;7.382;2023-09-12T07:21:54;96983.09;;;21.67;100.00
21817;BME280;13247;47.504;7.382;2023-09-12T07:24:39;96978.75;;;21.77;100.00
21817;BME280;13247;47.504;7.382;2023-09-12T07:27:24;96975.72;;;21.70;100.00
21817;BME280;13247;47.504;7.382;2023-09-12T07:30:09;96976.91;;;21.88;100.00
21817;BME280;13247;47.504;7.382;2023-09-12T07:32:54;96978.56;;;22.01;100.00
21817;BME280;13247;47.504;7.382;2023-09-12T07:35:39;96979.13;;;22.15;100.00
21817;BME280;13247;47.504;7.382;2023-09-12T07:38:24;96983.34;;;22.18;100.00
21817;BME280;13247;47.504;7.382;2023-09-12T07:41:09;96984.66;;;22.34;100.00
21817;BME280;13247;47.504;7.382;2023-09-12T07:43:53;96990.44;;;22.39;100.00
21817;BME280;13247;47.504;7.382;2023-09-12T07:46:38;96989.00;;;22.56;100.00
21817;BME280;13247;47.504;7.382;2023-09-12T07:49:23;96986.25;;;22.78;100.00
21817;BME280;13247;47.504;7.382;2023-09-12T07:52:10;96987.47;;;22.95;100.00
21817;BME280;13247;47.504;7.382;2023-09-12T07:55:00;96996.91;;;22.99;100.00
21817;BME280;13247;47.504;7.382;2023-09-12T07:57:44;96996.06;;;23.19;100.00
21817;BME280;13247;47.504;7.382;2023-09-12T08:00:29;96992.31;;;23.31;100.00
21817;BME280;13247;47.504;7.382;2023-09-12T08:03:14;96995.22;;;23.28;100.00
21817;BME280;13247;47.504;7.382;2023-09-12T08:06:05;96996.94;;;23.29;100.00
21817;BME280;13247;47.504;7.382;2023-09-12T08:08:50;96998.31;;;23.44;100.00
21817;BME280;13247;47.504;7.382;2023-09-12T08:11:34;96998.19;;;23.55;100.00
21817;BME280;13247;47.504;7.382;2023-09-12T08:14:19;97000.91;;;23.74;100.00
21817;BME280;13247;47.504;7.382;2023-09-12T08:17:05;96993.63;;;23.86;100.00
21817;BME280;13247;47.504;7.382;2023-09-12T08:19:50;96997.03;;;23.97;100.00
21817;BME280;13247;47.504;7.382;2023-09-12T08:22:35;96998.06;;;24.06;100.00
21817;BME280;13247;47.504;7.382;2023-09-12T08:25:20;97002.88;;;24.22;100.00
21817;BME280;13247;47.504;7.382;2023-09-12T08:28:04;97004.59;;;24.32;100.00
21817;BME280;13247;47.504;7.382;2023-09-12T08:30:49;96995.13;;;24.57;100.00
21817;BME280;13247;47.504;7.382;2023-09-12T08:33:34;97004.03;;;24.76;92.92
21817;BME280;13247;47.504;7.382;2023-09-12T08:36:18;96997.38;;;24.80;73.49
21817;BME280;13247;47.504;7.382;2023-09-12T08:39:04;96994.28;;;24.85;75.02
21817;BME280;13247;47.504;7.382;2023-09-12T08:41:53;96984.75;;;25.10;66.75
21817;BME280;13247;47.504;7.382;2023-09-12T08:44:38;96986.81;;;25.25;62.97
21817;BME280;13247;47.504;7.382;2023-09-12T08:47:25;96987.47;;;25.46;67.71
21817;BME280;13247;47.504;7.382;2023-09-12T08:50:12;96984.91;;;25.54;54.00
21817;BME280;13247;47.504;7.382;2023-09-12T08:52:57;96984.00;;;25.63;57.24
21817;BME280;13247;47.504;7.382;2023-09-12T08:55:42;96992.34;;;25.88;54.43
21817;BME280;13247;47.504;7.382;2023-09-12T08:58:27;96987.41;;;25.83;57.20
21817;BME280;13247;47.504;7.382;2023-09-12T09:01:14;96981.78;;;26.04;63.13
21817;BME280;13247;47.504;7.382;2023-09-12T09:04:02;96995.34;;;26.12;54.77
21817;BME280;13247;47.504;7.382;2023-09-12T09:06:50;96990.34;;;26.17;56.36
21817;BME280;13247;47.504;7.382;2023-09-12T09:09:35;96992.66;;;26.29;52.94
21817;BME280;13247;47.504;7.382;2023-09-12T09:12:20;96993.44;;;26.39;55.76
21817;BME280;13247;47.504;7.382;2023-09-12T09:15:21;96985.44;;;26.48;58.74
21817;BME280;13247;47.504;7.382;2023-09-12T09:18:06;96987.50;;;26.71;58.12
21817;BME280;13247;47.504;7.382;2023-09-12T09:20:52;96984.72;;;26.81;56.59
21817;BME280;13247;47.504;7.382;2023-09-12T09:23:45;96983.41;;;26.85;55.74
21817;BME280;13247;47.504;7.382;2023-09-12T09:26:46;96985.97;;;26.51;54.46
21817;BME280;13247;47.504;7.382;2023-09-12T09:29:31;96992.09;;;26.61;54.06
21817;BME280;13247;47.504;7.382;2023-09-12T09:32:19;96989.22;;;26.72;53.90
21817;BME280;13247;47.504;7.382;2023-09-12T09:35:07;96984.97;;;27.13;51.21
21817;BME280;13247;47.504;7.382;2023-09-12T09:37:53;96982.19;;;26.97;53.07
21817;BME280;13247;47.504;7.382;2023-09-12T09:40:38;96983.69;;;27.25;53.29
21817;BME280;13247;47.504;7.382;2023-09-12T09:43:23;96974.25;;;27.47;56.41
21817;BME280;13247;47.504;7.382;2023-09-12T09:46:15;96968.75;;;27.31;52.22
21817;BME280;13247;47.504;7.382;2023-09-12T09:49:01;96969.28;;;27.34;52.21
21817;BME280;13247;47.504;7.382;2023-09-12T09:51:46;96963.91;;;27.68;48.87
21817;BME280;13247;47.504;7.382;2023-09-12T09:54:32;96957.91;;;27.90;48.88
21817;BME280;13247;47.504;7.382;2023-09-12T09:57:20;96957.22;;;27.88;48.15
21817;BME280;13247;47.504;7.382;2023-09-12T10:00:05;96952.25;;;28.01;47.96
21817;BME280;13247;47.504;7.382;2023-09-12T10:02:53;96951.13;;;28.28;50.02
21817;BME280;13247;47.504;7.382;2023-09-12T10:05:38;96944.88;;;28.43;46.54
21817;BME280;13247;47.504;7.382;2023-09-12T10:08:26;96959.44;;;28.58;47.74
21817;BME280;13247;47.504;7.382;2023-09-12T10:11:14;96951.34;;;28.66;47.27
21817;BME280;13247;47.504;7.382;2023-09-12T10:14:05;96940.50;;;28.50;47.35
21817;BME280;13247;47.504;7.382;2023-09-12T10:16:50;96946.22;;;28.55;43.87
21817;BME280;13247;47.504;7.382;2023-09-12T10:19:56;96942.88;;;28.94;45.13
21817;BME280;13247;47.504;7.382;2023-09-12T10:23:08;96940.84;;;28.55;42.51
21817;BME280;13247;47.504;7.382;2023-09-12T10:25:57;96937.16;;;28.89;43.24
21817;BME280;13247;47.504;7.382;2023-09-12T10:28:43;96937.66;;;29.16;40.43
21817;BME280;13247;47.504;7.382;2023-09-12T10:31:28;96938.56;;;29.47;38.48
21817;BME280;13247;47.504;7.382;2023-09-12T10:34:15;96935.31;;;29.52;41.04
21817;BME280;13247;47.504;7.382;2023-09-12T10:37:00;96936.41;;;29.11;39.61
21817;BME280;13247;47.504;7.382;2023-09-12T10:39:46;96929.38;;;29.02;41.51
21817;BME280;13247;47.504;7.382;2023-09-12T10:42:33;96938.47;;;29.01;40.90
21817;BME280;13247;47.504;7.382;2023-09-12T10:45:19;96929.84;;;29.13;39.93
21817;BME280;13247;47.504;7.382;2023-09-12T10:48:04;96932.47;;;29.45;38.95
21817;BME280;13247;47.504;7.382;2023-09-12T10:50:49;96925.28;;;30.07;37.47
21817;BME280;13247;47.504;7.382;2023-09-12T10:53:34;96926.34;;;30.21;37.64
21817;BME280;13247;47.504;7.382;2023-09-12T10:56:20;96926.59;;;30.11;38.25
21817;BME280;13247;47.504;7.382;2023-09-12T11:01:54;96919.81;;;30.15;37.22
21817;BME280;13247;47.504;7.382;2023-09-12T11:04:39;96927.19;;;29.60;37.24
21817;BME280;13247;47.504;7.382;2023-09-12T11:07:34;96926.53;;;29.89;37.36
21817;BME280;13247;47.504;7.382;2023-09-12T11:10:28;96931.88;;;30.05;37.01
21817;BME280;13247;47.504;7.382;2023-09-12T11:13:19;96926.22;;;29.92;38.00
21817;BME280;13247;47.504;7.382;2023-09-12T11:16:16;96929.34;;;30.03;37.25
21817;BME280;13247;47.504;7.382;2023-09-12T11:19:21;96923.78;;;29.66;38.10
21817;BME280;13247;47.504;7.382;2023-09-12T11:22:24;96916.06;;;30.16;37.65
21817;BME280;13247;47.504;7.382;2023-09-12T11:25:24;96923.50;;;30.45;37.28
21817;BME280;13247;47.504;7.382;2023-09-12T11:28:10;96918.44;;;30.42;36.89
21817;BME280;13247;47.504;7.382;2023-09-12T11:30:56;96917.91;;;30.16;38.30
21817;BME280;13247;47.504;7.382;2023-09-12T11:33:41;96909.75;;;30.32;36.43
21817;BME280;13247;47.504;7.382;2023-09-12T11:36:26;96919.16;;;30.59;37.62
21817;BME280;13247;47.504;7.382;2023-09-12T11:39:25;96915.00;;;30.48;37.05
21817;BME280;13247;47.504;7.382;2023-09-12T11:42:11;96909.88;;;30.76;37.01
21817;BME280;13247;47.504;7.382;2023-09-12T11:44:59;96907.28;;;30.82;37.20
21817;BME280;13247;47.504;7.382;2023-09-12T11:47:45;96907.63;;;31.17;36.13
21817;BME280;13247;47.504;7.382;2023-09-12T11:50:36;96901.00;;;30.45;36.48
21817;BME280;13247;47.504;7.382;2023-09-12T11:53:27;96901.69;;;30.16;38.81
21817;BME280;13247;47.504;7.382;2023-09-12T11:56:15;96900.59;;;30.56;37.96
21817;BME280;13247;47.504;7.382;2023-09-12T11:59:00;96894.81;;;30.36;38.46
21817;BME280;13247;47.504;7.382;2023-09-12T12:01:45;96894.72;;;30.21;40.28
21817;BME280;13247;47.504;7.382;2023-09-12T12:04:31;96893.63;;;30.08;39.81
21817;BME280;13247;47.504;7.382;2023-09-12T12:07:16;96897.72;;;30.72;40.03
21817;BME280;13247;47.504;7.382;2023-09-12T12:10:01;96894.63;;;30.38;38.51
21817;BME280;13247;47.504;7.382;2023-09-12T12:12:48;96897.34;;;30.97;37.53
21817;BME280;13247;47.504;7.382;2023-09-12T12:15:36;96893.88;;;31.18;37.75
21817;BME280;13247;47.504;7.382;2023-09-12T12:18:21;96892.44;;;30.41;38.57
21817;BME280;13247;47.504;7.382;2023-09-12T12:21:05;96899.28;;;30.89;38.60
21817;BME280;13247;47.504;7.382;2023-09-12T12:24:04;96886.78;;;31.32;38.19
21817;BME280;13247;47.504;7.382;2023-09-12T12:26:49;96891.50;;;31.88;36.63
21817;BME280;13247;47.504;7.382;2023-09-12T12:29:36;96888.66;;;31.31;36.35
21817;BME280;13247;47.504;7.382;2023-09-12T12:32:21;96882.50;;;31.52;35.33
21817;BME280;13247;47.504;7.382;2023-09-12T12:35:06;96885.41;;;31.50;35.25
21817;BME280;13247;47.504;7.382;2023-09-12T12:37:54;96874.56;;;32.22;34.84
21817;BME280;13247;47.504;7.382;2023-09-12T12:40:40;96875.59;;;32.42;34.06
21817;BME280;13247;47.504;7.382;2023-09-12T12:43:25;96873.94;;;32.20;33.06
21817;BME280;13247;47.504;7.382;2023-09-12T12:46:12;96872.22;;;31.47;34.77
21817;BME280;13247;47.504;7.382;2023-09-12T12:48:57;96877.00;;;31.96;33.96
21817;BME280;13247;47.504;7.382;2023-09-12T12:51:42;96867.19;;;31.95;33.90
21817;BME280;13247;47.504;7.382;2023-09-12T12:54:32;96867.97;;;32.10;34.50
21817;BME280;13247;47.504;7.382;2023-09-12T12:57:21;96860.56;;;32.18;34.33
21817;BME280;13247;47.504;7.382;2023-09-12T13:00:17;96853.88;;;32.63;34.46
21817;BME280;13247;47.504;7.382;2023-09-12T13:03:06;96851.13;;;32.14;34.32
21817;BME280;13247;47.504;7.382;2023-09-12T13:05:51;96840.44;;;32.83;32.95
21817;BME280;13247;47.504;7.382;2023-09-12T13:08:35;96836.84;;;33.03;32.60
21817;BME280;13247;47.504;7.382;2023-09-12T13:11:20;96833.28;;;32.75;34.60
21817;BME280;13247;47.504;7.382;2023-09-12T13:14:05;96832.28;;;32.55;35.16
21817;BME280;13247;47.504;7.382;2023-09-12T13:16:56;96834.84;;;32.63;35.32
21817;BME280;13247;47.504;7.382;2023-09-12T13:19:41;96830.34;;;32.28;35.40
21817;BME280;13247;47.504;7.382;2023-09-12T13:22:26;96823.03;;;31.86;35.91
21817;BME280;13247;47.504;7.382;2023-09-12T13:25:10;96823.56;;;31.60;36.73
21817;BME280;13247;47.504;7.382;2023-09-12T13:27:55;96827.50;;;32.15;35.76
21817;BME280;13247;47.504;7.382;2023-09-12T13:30:40;96814.16;;;32.13;34.51
21817;BME280;13247;47.504;7.382;2023-09-12T13:33:25;96817.53;;;31.44;36.23
21817;BME280;13247;47.504;7.382;2023-09-12T13:36:09;96818.94;;;31.25;37.09
21817;BME280;13247;47.504;7.382;2023-09-12T13:38:54;96816.94;;;31.99;35.86
21817;BME280;13247;47.504;7.382;2023-09-12T13:41:40;96817.63;;;32.28;35.07
21817;BME280;13247;47.504;7.382;2023-09-12T13:44:25;96821.63;;;32.54;34.06
21817;BME280;13247;47.504;7.382;2023-09-12T13:47:09;96817.28;;;32.38;34.69
21817;BME280;13247;47.504;7.382;2023-09-12T13:49:54;96815.91;;;32.21;36.41
21817;BME280;13247;47.504;7.382;2023-09-12T13:52:38;96821.09;;;32.92;34.77
21817;BME280;13247;47.504;7.382;2023-09-12T13:55:23;96822.13;;;33.25;32.85
21817;BME280;13247;47.504;7.382;2023-09-12T13:58:07;96811.31;;;33.39;32.15
21817;BME280;13247;47.504;7.382;2023-09-12T14:00:52;96817.94;;;33.23;32.69
21817;BME280;13247;47.504;7.382;2023-09-12T14:03:37;96811.69;;;33.29;33.45
21817;BME280;13247;47.504;7.382;2023-09-12T14:06:22;96801.81;;;32.87;35.68
21817;BME280;13247;47.504;7.382;2023-09-12T14:09:07;96804.28;;;32.82;35.98
21817;BME280;13247;47.504;7.382;2023-09-12T14:11:52;96809.28;;;32.79;36.05
21817;BME280;13247;47.504;7.382;2023-09-12T14:14:36;96809.97;;;32.38;36.04
21817;BME280;13247;47.504;7.382;2023-09-12T14:17:21;96803.63;;;32.25;36.63
21817;BME280;13247;47.504;7.382;2023-09-12T14:20:06;96793.63;;;32.53;36.30
21817;BME280;13247;47.504;7.382;2023-09-12T14:22:51;96796.19;;;32.61;36.20
21817;BME280;13247;47.504;7.382;2023-09-12T14:25:35;96796.38;;;32.87;36.16
21817;BME280;13247;47.504;7.382;2023-09-12T14:28:20;96797.00;;;32.89;36.89
21817;BME280;13247;47.504;7.382;2023-09-12T14:31:05;96793.00;;;32.51;36.37
21817;BME280;13247;47.504;7.382;2023-09-12T14:33:57;96793.63;;;32.53;35.56
21817;BME280;13247;47.504;7.382;2023-09-12T14:36:42;96790.69;;;32.76;35.87
21817;BME280;13247;47.504;7.382;2023-09-12T14:39:27;96795.69;;;32.51;34.91
21817;BME280;13247;47.504;7.382;2023-09-12T14:42:11;96791.97;;;32.31;36.28